sensor_id;sensor_type;location;lat;lon;timestamp;temperature;humidity
6672;DHT22;3372;48.690;12.362;2022-07-29T00:00:39;23.50;22.50
6672;DHT22;3372;48.690;12.362;2022-07-29T00:03:04;23.50;22.60
6672;DHT22;3372;48.690;12.362;2022-07-29T00:05:30;23.50;22.70
6672;DHT22;3372;48.690;12.362;2022-07-29T00:07:55;23.50;22.20
6672;DHT22;3372;48.690;12.362;2022-07-29T00:10:21;23.60;22.80
6672;DHT22;3372;48.690;12.362;2022-07-29T00:12:47;23.60;22.10
6672;DHT22;3372;48.690;12.362;2022-07-29T00:15:13;23.50;22.50
6672;DHT22;3372;48.690;12.362;2022-07-29T00:17:39;23.60;22.60
6672;DHT22;3372;48.690;12.362;2022-07-29T00:20:05;23.60;23.10
6672;DHT22;3372;48.690;12.362;2022-07-29T00:22:30;23.60;22.50
6672;DHT22;3372;48.690;12.362;2022-07-29T00:24:56;23.50;23.10
6672;DHT22;3372;48.690;12.362;2022-07-29T00:27:22;23.60;22.80
6672;DHT22;3372;48.690;12.362;2022-07-29T00:29:47;23.60;23.50
6672;DHT22;3372;48.690;12.362;2022-07-29T00:32:13;23.50;23.60
6672;DHT22;3372;48.690;12.362;2022-07-29T00:34:39;23.50;23.20
6672;DHT22;3372;48.690;12.362;2022-07-29T00:37:23;23.40;23.40
6672;DHT22;3372;48.690;12.362;2022-07-29T00:39:49;23.40;24.10
6672;DHT22;3372;48.690;12.362;2022-07-29T00:42:14;23.40;23.30
6672;DHT22;3372;48.690;12.362;2022-07-29T00:44:42;23.30;23.60
6672;DHT22;3372;48.690;12.362;2022-07-29T00:47:09;23.30;23.80
6672;DHT22;3372;48.690;12.362;2022-07-29T00:49:35;23.20;24.10
6672;DHT22;3372;48.690;12.362;2022-07-29T00:52:02;23.20;24.00
6672;DHT22;3372;48.690;12.362;2022-07-29T00:54:28;23.20;23.90
6672;DHT22;3372;48.690;12.362;2022-07-29T00:56:56;23.20;23.90
6672;DHT22;3372;48.690;12.362;2022-07-29T00:59:23;23.20;23.80
6672;DHT22;3372;48.690;12.362;2022-07-29T01:01:48;23.10;24.00
6672;DHT22;3372;48.690;12.362;2022-07-29T01:04:14;23.20;24.20
6672;DHT22;3372;48.690;12.362;2022-07-29T01:06:40;23.10;24.60
6672;DHT22;3372;48.690;12.362;2022-07-29T01:09:06;23.10;24.70
6672;DHT22;3372;48.690;12.362;2022-07-29T01:11:33;23.10;24.50
6672;DHT22;3372;48.690;12.362;2022-07-29T01:13:59;23.00;24.60
6672;DHT22;3372;48.690;12.362;2022-07-29T01:16:32;23.10;24.60
6672;DHT22;3372;48.690;12.362;2022-07-29T01:19:13;23.00;24.60
6672;DHT22;3372;48.690;12.362;2022-07-29T01:21:51;23.00;25.90
6672;DHT22;3372;48.690;12.362;2022-07-29T01:24:47;23.00;25.60
6672;DHT22;3372;48.690;12.362;2022-07-29T01:27:45;23.00;26.10
6672;DHT22;3372;48.690;12.362;2022-07-29T01:30:13;23.00;26.50
6672;DHT22;3372;48.690;12.362;2022-07-29T01:32:39;22.90;25.10
6672;DHT22;3372;48.690;12.362;2022-07-29T01:35:26;23.00;24.80
6672;DHT22;3372;48.690;12.362;2022-07-29T01:38:08;22.90;26.60
6672;DHT22;3372;48.690;12.362;2022-07-29T01:43:47;22.90;26.50
6672;DHT22;3372;48.690;12.362;2022-07-29T01:46:20;22.90;26.10
6672;DHT22;3372;48.690;12.362;2022-07-29T01:48:54;22.90;25.60
6672;DHT22;3372;48.690;12.362;2022-07-29T01:54:25;22.90;27.00
6672;DHT22;3372;48.690;12.362;2022-07-29T01:56:53;22.90;25.80
6672;DHT22;3372;48.690;12.362;2022-07-29T01:59:20;22.90;25.50
6672;DHT22;3372;48.690;12.362;2022-07-29T02:01:48;22.80;25.60
6672;DHT22;3372;48.690;12.362;2022-07-29T02:04:16;22.80;26.00
6672;DHT22;3372;48.690;12.362;2022-07-29T02:06:44;22.70;26.00
6672;DHT22;3372;48.690;12.362;2022-07-29T02:09:12;22.70;25.70
6672;DHT22;3372;48.690;12.362;2022-07-29T02:11:40;22.80;26.40
6672;DHT22;3372;48.690;12.362;2022-07-29T02:14:09;22.80;25.40
6672;DHT22;3372;48.690;12.362;2022-07-29T02:16:37;22.80;25.70
6672;DHT22;3372;48.690;12.362;2022-07-29T02:19:05;22.70;25.70
6672;DHT22;3372;48.690;12.362;2022-07-29T02:21:32;22.70;25.80
6672;DHT22;3372;48.690;12.362;2022-07-29T02:24:00;22.70;26.00
6672;DHT22;3372;48.690;12.362;2022-07-29T02:26:27;22.70;25.80
6672;DHT22;3372;48.690;12.362;2022-07-29T02:28:56;22.70;25.90
6672;DHT22;3372;48.690;12.362;2022-07-29T02:31:24;22.70;26.00
6672;DHT22;3372;48.690;12.362;2022-07-29T02:33:52;22.70;26.00
6672;DHT22;3372;48.690;12.362;2022-07-29T02:36:21;22.70;26.60
6672;DHT22;3372;48.690;12.362;2022-07-29T02:38:47;22.70;26.40
6672;DHT22;3372;48.690;12.362;2022-07-29T02:41:52;22.70;26.60
6672;DHT22;3372;48.690;12.362;2022-07-29T02:44:20;22.60;27.20
6672;DHT22;3372;48.690;12.362;2022-07-29T02:52:07;22.70;26.30
6672;DHT22;3372;48.690;12.362;2022-07-29T02:54:41;22.70;25.60
6672;DHT22;3372;48.690;12.362;2022-07-29T02:57:32;22.70;25.40
6672;DHT22;3372;48.690;12.362;2022-07-29T03:00:03;22.80;26.00
6672;DHT22;3372;48.690;12.362;2022-07-29T03:02:34;22.70;26.00
6672;DHT22;3372;48.690;12.362;2022-07-29T03:05:02;22.70;25.60
6672;DHT22;3372;48.690;12.362;2022-07-29T03:07:27;22.70;25.00
6672;DHT22;3372;48.690;12.362;2022-07-29T03:09:54;22.70;26.00
6672;DHT22;3372;48.690;12.362;2022-07-29T03:12:20;22.60;25.60
6672;DHT22;3372;48.690;12.362;2022-07-29T03:14:46;22.60;25.10
6672;DHT22;3372;48.690;12.362;2022-07-29T03:17:12;22.60;25.30
6672;DHT22;3372;48.690;12.362;2022-07-29T03:19:39;22.60;25.50
6672;DHT22;3372;48.690;12.362;2022-07-29T03:22:04;22.60;25.00
6672;DHT22;3372;48.690;12.362;2022-07-29T03:24:35;22.60;25.50
6672;DHT22;3372;48.690;12.362;2022-07-29T03:27:02;22.60;25.20
6672;DHT22;3372;48.690;12.362;2022-07-29T03:29:29;22.60;25.50
6672;DHT22;3372;48.690;12.362;2022-07-29T03:31:54;22.60;25.60
6672;DHT22;3372;48.690;12.362;2022-07-29T03:34:20;22.60;25.80
6672;DHT22;3372;48.690;12.362;2022-07-29T03:36:46;22.60;25.40
6672;DHT22;3372;48.690;12.362;2022-07-29T03:39:14;22.70;25.30
6672;DHT22;3372;48.690;12.362;2022-07-29T03:41:42;22.70;25.60
6672;DHT22;3372;48.690;12.362;2022-07-29T03:44:09;22.60;25.80
6672;DHT22;3372;48.690;12.362;2022-07-29T03:46:37;22.70;26.20
6672;DHT22;3372;48.690;12.362;2022-07-29T03:49:04;22.60;26.10
6672;DHT22;3372;48.690;12.362;2022-07-29T03:51:33;22.60;26.30
6672;DHT22;3372;48.690;12.362;2022-07-29T03:54:00;22.70;26.40
6672;DHT22;3372;48.690;12.362;2022-07-29T03:56:27;22.60;26.60
6672;DHT22;3372;48.690;12.362;2022-07-29T03:58:53;22.60;26.20
6672;DHT22;3372;48.690;12.362;2022-07-29T04:01:20;22.60;26.30
6672;DHT22;3372;48.690;12.362;2022-07-29T04:03:46;22.70;25.40
6672;DHT22;3372;48.690;12.362;2022-07-29T04:06:12;22.70;25.10
6672;DHT22;3372;48.690;12.362;2022-07-29T04:08:38;22.60;25.40
6672;DHT22;3372;48.690;12.362;2022-07-29T04:11:04;22.50;26.70
6672;DHT22;3372;48.690;12.362;2022-07-29T04:13:31;22.30;27.20
6672;DHT22;3372;48.690;12.362;2022-07-29T04:15:57;22.40;26.60
6672;DHT22;3372;48.690;12.362;2022-07-29T04:18:22;22.40;26.30
6672;DHT22;3372;48.690;12.362;2022-07-29T04:20:48;22.50;26.50
6672;DHT22;3372;48.690;12.362;2022-07-29T04:23:14;22.40;27.10
6672;DHT22;3372;48.690;12.362;2022-07-29T04:25:40;22.30;27.70
6672;DHT22;3372;48.690;12.362;2022-07-29T04:28:07;22.40;26.80
6672;DHT22;3372;48.690;12.362;2022-07-29T04:30:33;22.50;26.50
6672;DHT22;3372;48.690;12.362;2022-07-29T04:33:00;22.40;27.00
6672;DHT22;3372;48.690;12.362;2022-07-29T04:35:27;22.30;28.10
6672;DHT22;3372;48.690;12.362;2022-07-29T04:37:53;22.20;28.40
6672;DHT22;3372;48.690;12.362;2022-07-29T04:40:18;22.20;27.60
6672;DHT22;3372;48.690;12.362;2022-07-29T04:42:44;22.20;28.00
6672;DHT22;3372;48.690;12.362;2022-07-29T04:45:10;22.20;28.20
6672;DHT22;3372;48.690;12.362;2022-07-29T04:47:35;22.30;27.40
6672;DHT22;3372;48.690;12.362;2022-07-29T04:50:01;22.20;28.00
6672;DHT22;3372;48.690;12.362;2022-07-29T04:52:26;22.10;28.20
6672;DHT22;3372;48.690;12.362;2022-07-29T04:54:52;22.30;27.80
6672;DHT22;3372;48.690;12.362;2022-07-29T04:57:18;22.40;26.90
6672;DHT22;3372;48.690;12.362;2022-07-29T04:59:43;22.40;27.00
6672;DHT22;3372;48.690;12.362;2022-07-29T05:02:09;22.50;27.10
6672;DHT22;3372;48.690;12.362;2022-07-29T05:04:35;22.60;26.60
6672;DHT22;3372;48.690;12.362;2022-07-29T05:07:00;22.50;27.50
6672;DHT22;3372;48.690;12.362;2022-07-29T05:09:26;22.50;26.60
6672;DHT22;3372;48.690;12.362;2022-07-29T05:11:51;22.60;26.90
6672;DHT22;3372;48.690;12.362;2022-07-29T05:14:17;22.60;27.40
6672;DHT22;3372;48.690;12.362;2022-07-29T05:16:42;22.60;26.60
6672;DHT22;3372;48.690;12.362;2022-07-29T05:19:09;22.70;26.40
6672;DHT22;3372;48.690;12.362;2022-07-29T05:21:34;22.70;26.30
6672;DHT22;3372;48.690;12.362;2022-07-29T05:24:00;22.80;26.20
6672;DHT22;3372;48.690;12.362;2022-07-29T05:26:26;22.80;26.50
6672;DHT22;3372;48.690;12.362;2022-07-29T05:28:51;22.70;26.40
6672;DHT22;3372;48.690;12.362;2022-07-29T05:31:17;22.70;26.80
6672;DHT22;3372;48.690;12.362;2022-07-29T05:33:42;22.60;27.20
6672;DHT22;3372;48.690;12.362;2022-07-29T05:36:08;22.60;26.90
6672;DHT22;3372;48.690;12.362;2022-07-29T05:38:35;22.60;26.80
6672;DHT22;3372;48.690;12.362;2022-07-29T05:41:00;22.70;26.90
6672;DHT22;3372;48.690;12.362;2022-07-29T05:43:27;22.60;27.20
6672;DHT22;3372;48.690;12.362;2022-07-29T05:45:53;22.50;27.60
6672;DHT22;3372;48.690;12.362;2022-07-29T05:48:18;22.60;26.90
6672;DHT22;3372;48.690;12.362;2022-07-29T05:50:44;22.60;27.70
6672;DHT22;3372;48.690;12.362;2022-07-29T05:53:10;22.60;27.70
6672;DHT22;3372;48.690;12.362;2022-07-29T05:55:35;22.60;27.20
6672;DHT22;3372;48.690;12.362;2022-07-29T05:58:01;22.80;26.80
6672;DHT22;3372;48.690;12.362;2022-07-29T06:00:26;22.90;26.80
6672;DHT22;3372;48.690;12.362;2022-07-29T06:02:52;23.00;26.50
6672;DHT22;3372;48.690;12.362;2022-07-29T06:05:17;23.00;27.10
6672;DHT22;3372;48.690;12.362;2022-07-29T06:07:43;23.20;26.30
6672;DHT22;3372;48.690;12.362;2022-07-29T06:10:08;23.30;26.10
6672;DHT22;3372;48.690;12.362;2022-07-29T06:12:34;23.40;26.20
6672;DHT22;3372;48.690;12.362;2022-07-29T06:15:00;23.40;25.90
6672;DHT22;3372;48.690;12.362;2022-07-29T06:17:25;23.50;25.80
6672;DHT22;3372;48.690;12.362;2022-07-29T06:19:51;23.70;26.10
6672;DHT22;3372;48.690;12.362;2022-07-29T06:22:16;24.40;25.80
6672;DHT22;3372;48.690;12.362;2022-07-29T06:24:42;25.20;24.80
6672;DHT22;3372;48.690;12.362;2022-07-29T06:27:10;25.70;23.20
6672;DHT22;3372;48.690;12.362;2022-07-29T06:29:37;25.70;22.70
6672;DHT22;3372;48.690;12.362;2022-07-29T06:32:03;26.10;22.10
6672;DHT22;3372;48.690;12.362;2022-07-29T06:34:29;26.20;20.00
6672;DHT22;3372;48.690;12.362;2022-07-29T06:36:55;25.80;21.10
6672;DHT22;3372;48.690;12.362;2022-07-29T06:39:20;25.60;21.90
6672;DHT22;3372;48.690;12.362;2022-07-29T06:41:47;25.70;21.60
6672;DHT22;3372;48.690;12.362;2022-07-29T06:44:14;26.00;21.20
6672;DHT22;3372;48.690;12.362;2022-07-29T06:46:40;26.30;19.90
6672;DHT22;3372;48.690;12.362;2022-07-29T06:49:05;26.60;20.00
6672;DHT22;3372;48.690;12.362;2022-07-29T06:51:31;27.00;19.70
6672;DHT22;3372;48.690;12.362;2022-07-29T06:53:57;27.30;19.50
6672;DHT22;3372;48.690;12.362;2022-07-29T06:56:26;27.60;19.10
6672;DHT22;3372;48.690;12.362;2022-07-29T06:58:52;27.60;17.30
6672;DHT22;3372;48.690;12.362;2022-07-29T07:01:17;27.80;17.70
6672;DHT22;3372;48.690;12.362;2022-07-29T07:03:43;27.40;18.00
6672;DHT22;3372;48.690;12.362;2022-07-29T07:06:08;27.10;17.80
6672;DHT22;3372;48.690;12.362;2022-07-29T07:08:34;26.80;18.50
6672;DHT22;3372;48.690;12.362;2022-07-29T07:11:00;26.80;19.60
6672;DHT22;3372;48.690;12.362;2022-07-29T07:13:25;26.80;18.90
6672;DHT22;3372;48.690;12.362;2022-07-29T07:15:51;26.80;18.30
6672;DHT22;3372;48.690;12.362;2022-07-29T07:18:18;27.10;18.80
6672;DHT22;3372;48.690;12.362;2022-07-29T07:20:44;27.00;18.00
6672;DHT22;3372;48.690;12.362;2022-07-29T07:23:10;26.70;18.40
6672;DHT22;3372;48.690;12.362;2022-07-29T07:25:35;26.50;19.30
6672;DHT22;3372;48.690;12.362;2022-07-29T07:28:01;26.50;19.40
6672;DHT22;3372;48.690;12.362;2022-07-29T07:30:27;26.80;18.70
6672;DHT22;3372;48.690;12.362;2022-07-29T07:32:53;27.20;16.90
6672;DHT22;3372;48.690;12.362;2022-07-29T07:35:19;27.70;15.80
6672;DHT22;3372;48.690;12.362;2022-07-29T07:37:45;28.00;15.90
6672;DHT22;3372;48.690;12.362;2022-07-29T07:40:13;28.00;15.90
6672;DHT22;3372;48.690;12.362;2022-07-29T07:42:40;28.00;15.30
6672;DHT22;3372;48.690;12.362;2022-07-29T07:45:06;28.50;16.20
6672;DHT22;3372;48.690;12.362;2022-07-29T07:47:35;28.80;14.00
6672;DHT22;3372;48.690;12.362;2022-07-29T07:50:00;29.00;13.60
6672;DHT22;3372;48.690;12.362;2022-07-29T07:52:26;29.10;12.90
6672;DHT22;3372;48.690;12.362;2022-07-29T07:54:54;28.80;12.70
6672;DHT22;3372;48.690;12.362;2022-07-29T07:57:19;28.30;13.90
6672;DHT22;3372;48.690;12.362;2022-07-29T07:59:45;28.30;14.40
6672;DHT22;3372;48.690;12.362;2022-07-29T08:02:10;28.60;15.10
6672;DHT22;3372;48.690;12.362;2022-07-29T08:04:36;28.70;12.50
6672;DHT22;3372;48.690;12.362;2022-07-29T08:07:02;28.50;14.20
6672;DHT22;3372;48.690;12.362;2022-07-29T08:09:29;28.40;13.40
6672;DHT22;3372;48.690;12.362;2022-07-29T08:11:55;28.40;13.50
6672;DHT22;3372;48.690;12.362;2022-07-29T08:14:21;28.70;13.70
6672;DHT22;3372;48.690;12.362;2022-07-29T08:16:47;28.90;13.40
6672;DHT22;3372;48.690;12.362;2022-07-29T08:19:12;29.10;13.40
6672;DHT22;3372;48.690;12.362;2022-07-29T08:21:38;29.50;14.00
6672;DHT22;3372;48.690;12.362;2022-07-29T08:24:04;29.60;13.90
6672;DHT22;3372;48.690;12.362;2022-07-29T08:26:48;29.80;13.10
6672;DHT22;3372;48.690;12.362;2022-07-29T08:29:14;29.90;13.20
6672;DHT22;3372;48.690;12.362;2022-07-29T08:31:40;29.90;11.20
6672;DHT22;3372;48.690;12.362;2022-07-29T08:34:06;29.90;12.20
6672;DHT22;3372;48.690;12.362;2022-07-29T08:36:32;30.00;11.50
6672;DHT22;3372;48.690;12.362;2022-07-29T08:38:59;29.90;11.20
6672;DHT22;3372;48.690;12.362;2022-07-29T08:41:26;29.90;11.90
6672;DHT22;3372;48.690;12.362;2022-07-29T08:43:52;30.10;12.00
6672;DHT22;3372;48.690;12.362;2022-07-29T08:46:20;30.10;11.30
6672;DHT22;3372;48.690;12.362;2022-07-29T08:48:46;30.20;12.10
6672;DHT22;3372;48.690;12.362;2022-07-29T08:51:18;30.40;11.90
6672;DHT22;3372;48.690;12.362;2022-07-29T08:53:45;30.60;10.20
6672;DHT22;3372;48.690;12.362;2022-07-29T08:56:14;30.50;10.30
6672;DHT22;3372;48.690;12.362;2022-07-29T08:58:42;30.20;11.00
6672;DHT22;3372;48.690;12.362;2022-07-29T09:01:08;30.60;10.30
6672;DHT22;3372;48.690;12.362;2022-07-29T09:03:37;30.60;9.00
6672;DHT22;3372;48.690;12.362;2022-07-29T09:06:04;30.60;9.80
6672;DHT22;3372;48.690;12.362;2022-07-29T09:08:31;30.60;7.30
6672;DHT22;3372;48.690;12.362;2022-07-29T09:10:57;30.30;9.60
6672;DHT22;3372;48.690;12.362;2022-07-29T09:13:25;30.70;9.90
6672;DHT22;3372;48.690;12.362;2022-07-29T09:15:50;30.70;8.40
6672;DHT22;3372;48.690;12.362;2022-07-29T09:18:40;30.60;8.10
6672;DHT22;3372;48.690;12.362;2022-07-29T09:21:08;30.80;7.40
6672;DHT22;3372;48.690;12.362;2022-07-29T09:24:01;30.80;9.00
6672;DHT22;3372;48.690;12.362;2022-07-29T09:26:31;31.00;7.40
6672;DHT22;3372;48.690;12.362;2022-07-29T09:28:57;31.00;8.30
6672;DHT22;3372;48.690;12.362;2022-07-29T09:31:35;31.20;6.60
6672;DHT22;3372;48.690;12.362;2022-07-29T09:34:00;31.10;6.30
6672;DHT22;3372;48.690;12.362;2022-07-29T09:36:27;31.10;5.60
6672;DHT22;3372;48.690;12.362;2022-07-29T09:39:02;31.00;7.90
6672;DHT22;3372;48.690;12.362;2022-07-29T09:41:28;31.30;7.60
6672;DHT22;3372;48.690;12.362;2022-07-29T09:43:59;31.40;7.60
6672;DHT22;3372;48.690;12.362;2022-07-29T09:46:25;31.50;7.00
6672;DHT22;3372;48.690;12.362;2022-07-29T09:49:26;31.00;6.80
6672;DHT22;3372;48.690;12.362;2022-07-29T09:52:09;30.90;5.70
6672;DHT22;3372;48.690;12.362;2022-07-29T09:54:36;31.10;5.70
6672;DHT22;3372;48.690;12.362;2022-07-29T09:57:06;31.10;7.40
6672;DHT22;3372;48.690;12.362;2022-07-29T09:59:34;31.10;6.60
6672;DHT22;3372;48.690;12.362;2022-07-29T10:01:59;31.10;7.40
6672;DHT22;3372;48.690;12.362;2022-07-29T10:04:41;31.10;7.50
6672;DHT22;3372;48.690;12.362;2022-07-29T10:07:07;31.20;5.10
6672;DHT22;3372;48.690;12.362;2022-07-29T10:09:34;31.20;5.80
6672;DHT22;3372;48.690;12.362;2022-07-29T10:12:04;31.20;5.70
6672;DHT22;3372;48.690;12.362;2022-07-29T10:14:33;31.20;4.80
6672;DHT22;3372;48.690;12.362;2022-07-29T10:17:00;31.20;4.90
6672;DHT22;3372;48.690;12.362;2022-07-29T10:19:28;30.90;5.20
6672;DHT22;3372;48.690;12.362;2022-07-29T10:21:55;31.00;7.10
6672;DHT22;3372;48.690;12.362;2022-07-29T10:24:22;31.10;6.70
6672;DHT22;3372;48.690;12.362;2022-07-29T10:26:48;31.30;6.60
6672;DHT22;3372;48.690;12.362;2022-07-29T10:29:17;31.10;5.00
6672;DHT22;3372;48.690;12.362;2022-07-29T10:31:55;31.10;4.80
6672;DHT22;3372;48.690;12.362;2022-07-29T10:37:28;31.20;6.20
6672;DHT22;3372;48.690;12.362;2022-07-29T10:43:20;31.10;4.90
6672;DHT22;3372;48.690;12.362;2022-07-29T10:45:48;31.00;6.10
6672;DHT22;3372;48.690;12.362;2022-07-29T10:48:14;31.00;5.60
6672;DHT22;3372;48.690;12.362;2022-07-29T10:51:00;31.10;7.40
6672;DHT22;3372;48.690;12.362;2022-07-29T10:53:45;31.00;5.00
6672;DHT22;3372;48.690;12.362;2022-07-29T10:56:30;30.80;4.60
6672;DHT22;3372;48.690;12.362;2022-07-29T11:01:43;30.70;4.10
6672;DHT22;3372;48.690;12.362;2022-07-29T11:04:09;30.70;4.60
6672;DHT22;3372;48.690;12.362;2022-07-29T11:09:26;30.20;4.60
6672;DHT22;3372;48.690;12.362;2022-07-29T11:11:52;30.30;5.90
6672;DHT22;3372;48.690;12.362;2022-07-29T11:14:18;30.60;6.60
6672;DHT22;3372;48.690;12.362;2022-07-29T11:17:05;30.50;4.40
6672;DHT22;3372;48.690;12.362;2022-07-29T11:19:31;30.50;5.00
6672;DHT22;3372;48.690;12.362;2022-07-29T11:21:57;30.60;4.60
6672;DHT22;3372;48.690;12.362;2022-07-29T11:24:24;30.70;4.10
6672;DHT22;3372;48.690;12.362;2022-07-29T11:27:17;30.50;5.70
6672;DHT22;3372;48.690;12.362;2022-07-29T11:29:55;30.50;3.70
6672;DHT22;3372;48.690;12.362;2022-07-29T11:32:23;30.50;4.10
6672;DHT22;3372;48.690;12.362;2022-07-29T11:35:10;30.70;3.80
6672;DHT22;3372;48.690;12.362;2022-07-29T11:37:35;30.70;3.00
6672;DHT22;3372;48.690;12.362;2022-07-29T11:42:37;30.70;3.60
6672;DHT22;3372;48.690;12.362;2022-07-29T11:45:13;30.60;2.90
6672;DHT22;3372;48.690;12.362;2022-07-29T11:47:51;30.60;3.90
6672;DHT22;3372;48.690;12.362;2022-07-29T11:50:28;30.30;4.70
6672;DHT22;3372;48.690;12.362;2022-07-29T11:52:53;30.20;3.50
6672;DHT22;3372;48.690;12.362;2022-07-29T11:55:21;30.30;5.20
6672;DHT22;3372;48.690;12.362;2022-07-29T11:57:52;30.30;5.00
6672;DHT22;3372;48.690;12.362;2022-07-29T12:00:31;30.10;3.50
6672;DHT22;3372;48.690;12.362;2022-07-29T12:02:59;30.30;3.50
6672;DHT22;3372;48.690;12.362;2022-07-29T12:05:39;30.30;3.00
6672;DHT22;3372;48.690;12.362;2022-07-29T12:08:15;30.40;3.90
6672;DHT22;3372;48.690;12.362;2022-07-29T12:10:42;30.50;2.90
6672;DHT22;3372;48.690;12.362;2022-07-29T12:13:08;30.50;3.90
6672;DHT22;3372;48.690;12.362;2022-07-29T12:15:34;30.60;4.40
6672;DHT22;3372;48.690;12.362;2022-07-29T12:18:18;30.70;4.20
6672;DHT22;3372;48.690;12.362;2022-07-29T12:20:46;30.60;3.70
6672;DHT22;3372;48.690;12.362;2022-07-29T12:23:12;30.20;3.00
6672;DHT22;3372;48.690;12.362;2022-07-29T12:25:39;30.50;4.60
6672;DHT22;3372;48.690;12.362;2022-07-29T12:28:07;30.50;4.70
6672;DHT22;3372;48.690;12.362;2022-07-29T12:30:36;30.50;4.40
6672;DHT22;3372;48.690;12.362;2022-07-29T12:33:20;30.20;4.70
6672;DHT22;3372;48.690;12.362;2022-07-29T12:35:51;30.60;5.20
6672;DHT22;3372;48.690;12.362;2022-07-29T12:38:17;30.70;5.10
6672;DHT22;3372;48.690;12.362;2022-07-29T12:40:44;30.50;4.60
6672;DHT22;3372;48.690;12.362;2022-07-29T12:43:16;30.30;4.70
6672;DHT22;3372;48.690;12.362;2022-07-29T12:45:48;30.40;4.30
6672;DHT22;3372;48.690;12.362;2022-07-29T12:48:16;30.40;5.60
6672;DHT22;3372;48.690;12.362;2022-07-29T12:51:01;30.50;5.30
6672;DHT22;3372;48.690;12.362;2022-07-29T12:53:28;30.30;4.40
6672;DHT22;3372;48.690;12.362;2022-07-29T12:55:55;30.40;5.00
6672;DHT22;3372;48.690;12.362;2022-07-29T12:58:41;30.50;5.60
6672;DHT22;3372;48.690;12.362;2022-07-29T13:01:15;30.60;4.70
6672;DHT22;3372;48.690;12.362;2022-07-29T13:03:58;30.80;5.10
6672;DHT22;3372;48.690;12.362;2022-07-29T13:09:16;30.80;4.40
6672;DHT22;3372;48.690;12.362;2022-07-29T13:11:44;30.80;3.90
6672;DHT22;3372;48.690;12.362;2022-07-29T13:14:59;30.90;3.70
6672;DHT22;3372;48.690;12.362;2022-07-29T13:17:11;30.90;3.00
6672;DHT22;3372;48.690;12.362;2022-07-29T13:19:40;30.90;3.90
6672;DHT22;3372;48.690;12.362;2022-07-29T13:22:07;31.00;3.10
6672;DHT22;3372;48.690;12.362;2022-07-29T13:24:33;30.70;3.90
6672;DHT22;3372;48.690;12.362;2022-07-29T13:27:00;30.80;3.80
6672;DHT22;3372;48.690;12.362;2022-07-29T13:29:25;30.70;3.60
6672;DHT22;3372;48.690;12.362;2022-07-29T13:31:52;30.70;3.70
6672;DHT22;3372;48.690;12.362;2022-07-29T13:34:18;30.70;3.50
6672;DHT22;3372;48.690;12.362;2022-07-29T13:36:45;30.60;3.60
6672;DHT22;3372;48.690;12.362;2022-07-29T13:39:11;30.50;4.00
6672;DHT22;3372;48.690;12.362;2022-07-29T13:41:37;30.50;2.30
6672;DHT22;3372;48.690;12.362;2022-07-29T13:44:02;30.30;3.80
6672;DHT22;3372;48.690;12.362;2022-07-29T13:46:28;30.20;3.40
6672;DHT22;3372;48.690;12.362;2022-07-29T13:48:53;29.80;3.40
6672;DHT22;3372;48.690;12.362;2022-07-29T13:51:19;29.90;3.40
6672;DHT22;3372;48.690;12.362;2022-07-29T13:53:45;30.00;3.90
6672;DHT22;3372;48.690;12.362;2022-07-29T13:56:10;30.20;3.20
6672;DHT22;3372;48.690;12.362;2022-07-29T13:58:36;30.30;3.30
6672;DHT22;3372;48.690;12.362;2022-07-29T14:01:02;30.40;2.80
6672;DHT22;3372;48.690;12.362;2022-07-29T14:03:27;30.60;3.40
6672;DHT22;3372;48.690;12.362;2022-07-29T14:05:53;30.70;2.90
6672;DHT22;3372;48.690;12.362;2022-07-29T14:08:19;30.60;3.20
6672;DHT22;3372;48.690;12.362;2022-07-29T14:10:44;30.50;3.00
6672;DHT22;3372;48.690;12.362;2022-07-29T14:13:10;30.40;4.10
6672;DHT22;3372;48.690;12.362;2022-07-29T14:15:36;30.60;3.40
6672;DHT22;3372;48.690;12.362;2022-07-29T14:18:01;30.50;2.90
6672;DHT22;3372;48.690;12.362;2022-07-29T14:20:27;30.30;3.40
6672;DHT22;3372;48.690;12.362;2022-07-29T14:22:55;30.10;3.00
6672;DHT22;3372;48.690;12.362;2022-07-29T14:25:22;30.20;3.70
6672;DHT22;3372;48.690;12.362;2022-07-29T14:27:47;30.20;3.50
6672;DHT22;3372;48.690;12.362;2022-07-29T14:30:13;30.20;3.80
6672;DHT22;3372;48.690;12.362;2022-07-29T14:32:39;30.30;4.20
6672;DHT22;3372;48.690;12.362;2022-07-29T14:35:06;30.50;4.00
6672;DHT22;3372;48.690;12.362;2022-07-29T14:37:32;30.50;2.70
6672;DHT22;3372;48.690;12.362;2022-07-29T14:39:57;30.30;2.50
6672;DHT22;3372;48.690;12.362;2022-07-29T14:42:27;30.50;3.90
6672;DHT22;3372;48.690;12.362;2022-07-29T14:44:52;30.60;3.60
6672;DHT22;3372;48.690;12.362;2022-07-29T14:47:18;30.50;3.40
6672;DHT22;3372;48.690;12.362;2022-07-29T14:49:44;30.60;3.70
6672;DHT22;3372;48.690;12.362;2022-07-29T14:52:10;30.60;3.10
6672;DHT22;3372;48.690;12.362;2022-07-29T14:54:36;30.50;3.00
6672;DHT22;3372;48.690;12.362;2022-07-29T14:57:01;30.60;2.50
6672;DHT22;3372;48.690;12.362;2022-07-29T14:59:27;30.50;2.90
6672;DHT22;3372;48.690;12.362;2022-07-29T15:01:53;30.40;3.10
6672;DHT22;3372;48.690;12.362;2022-07-29T15:04:18;30.40;2.90
6672;DHT22;3372;48.690;12.362;2022-07-29T15:06:44;30.40;3.00
6672;DHT22;3372;48.690;12.362;2022-07-29T15:09:10;30.30;2.60
6672;DHT22;3372;48.690;12.362;2022-07-29T15:11:35;30.30;1.90
6672;DHT22;3372;48.690;12.362;2022-07-29T15:14:01;30.30;3.30
6672;DHT22;3372;48.690;12.362;2022-07-29T15:16:27;30.20;3.10
6672;DHT22;3372;48.690;12.362;2022-07-29T15:18:52;30.20;2.50
6672;DHT22;3372;48.690;12.362;2022-07-29T15:21:18;30.30;2.70
6672;DHT22;3372;48.690;12.362;2022-07-29T15:23:43;30.20;3.10
6672;DHT22;3372;48.690;12.362;2022-07-29T15:26:09;30.40;2.70
6672;DHT22;3372;48.690;12.362;2022-07-29T15:28:35;30.30;2.00
6672;DHT22;3372;48.690;12.362;2022-07-29T15:31:01;30.20;2.50
6672;DHT22;3372;48.690;12.362;2022-07-29T15:33:26;30.20;1.20
6672;DHT22;3372;48.690;12.362;2022-07-29T15:35:52;30.20;2.90
6672;DHT22;3372;48.690;12.362;2022-07-29T15:38:17;30.40;3.40
6672;DHT22;3372;48.690;12.362;2022-07-29T15:40:43;30.60;3.30
6672;DHT22;3372;48.690;12.362;2022-07-29T15:43:09;30.40;2.50
6672;DHT22;3372;48.690;12.362;2022-07-29T15:45:39;30.60;3.10
6672;DHT22;3372;48.690;12.362;2022-07-29T15:48:06;30.50;2.70
6672;DHT22;3372;48.690;12.362;2022-07-29T15:50:33;30.40;2.40
6672;DHT22;3372;48.690;12.362;2022-07-29T15:52:58;30.30;2.30
6672;DHT22;3372;48.690;12.362;2022-07-29T15:55:24;30.00;1.70
6672;DHT22;3372;48.690;12.362;2022-07-29T15:57:50;30.10;2.50
6672;DHT22;3372;48.690;12.362;2022-07-29T16:00:16;30.10;2.00
6672;DHT22;3372;48.690;12.362;2022-07-29T16:02:43;30.10;1.30
6672;DHT22;3372;48.690;12.362;2022-07-29T16:05:09;30.00;2.20
6672;DHT22;3372;48.690;12.362;2022-07-29T16:07:34;30.10;3.00
6672;DHT22;3372;48.690;12.362;2022-07-29T16:10:00;30.00;2.70
6672;DHT22;3372;48.690;12.362;2022-07-29T16:12:26;29.70;1.60
6672;DHT22;3372;48.690;12.362;2022-07-29T16:14:52;29.70;3.00
6672;DHT22;3372;48.690;12.362;2022-07-29T16:17:19;29.60;2.80
6672;DHT22;3372;48.690;12.362;2022-07-29T16:19:45;29.50;3.20
6672;DHT22;3372;48.690;12.362;2022-07-29T16:22:11;29.50;3.20
6672;DHT22;3372;48.690;12.362;2022-07-29T16:24:37;29.60;3.80
6672;DHT22;3372;48.690;12.362;2022-07-29T16:27:03;29.70;4.10